sensor_id;sensor_type;location;lat;lon;timestamp;temperature;humidity
8892;DHT22;4482;54.332;10.118;2022-07-21T00:01:59;20.50;99.90
8892;DHT22;4482;54.332;10.118;2022-07-21T00:04:26;20.50;99.90
8892;DHT22;4482;54.332;10.118;2022-07-21T00:06:52;20.50;99.90
8892;DHT22;4482;54.332;10.118;2022-07-21T00:09:19;20.40;99.90
8892;DHT22;4482;54.332;10.118;2022-07-21T00:11:46;20.30;99.90
8892;DHT22;4482;54.332;10.118;2022-07-21T00:14:15;20.30;99.90
8892;DHT22;4482;54.332;10.118;2022-07-21T00:16:42;20.30;99.90
8892;DHT22;4482;54.332;10.118;2022-07-21T00:19:09;20.20;99.90
8892;DHT22;4482;54.332;10.118;2022-07-21T00:21:37;20.20;99.90
8892;DHT22;4482;54.332;10.118;2022-07-21T00:24:04;20.20;99.90
8892;DHT22;4482;54.332;10.118;2022-07-21T00:26:31;20.20;99.90
8892;DHT22;4482;54.332;10.118;2022-07-21T00:28:58;20.20;99.90
8892;DHT22;4482;54.332;10.118;2022-07-21T00:31:26;20.20;99.90
8892;DHT22;4482;54.332;10.118;2022-07-21T00:33:53;20.20;99.90
8892;DHT22;4482;54.332;10.118;2022-07-21T00:36:21;20.10;99.90
8892;DHT22;4482;54.332;10.118;2022-07-21T00:38:48;20.10;99.90
8892;DHT22;4482;54.332;10.118;2022-07-21T00:41:15;20.10;99.90
8892;DHT22;4482;54.332;10.118;2022-07-21T00:43:42;20.10;99.90
8892;DHT22;4482;54.332;10.118;2022-07-21T00:46:09;20.10;99.90
8892;DHT22;4482;54.332;10.118;2022-07-21T00:48:37;20.10;99.90
8892;DHT22;4482;54.332;10.118;2022-07-21T00:51:05;20.00;99.90
8892;DHT22;4482;54.332;10.118;2022-07-21T00:53:32;20.00;99.90
8892;DHT22;4482;54.332;10.118;2022-07-21T00:55:59;19.90;99.90
8892;DHT22;4482;54.332;10.118;2022-07-21T00:58:26;19.90;99.90
8892;DHT22;4482;54.332;10.118;2022-07-21T01:00:53;19.90;99.90
8892;DHT22;4482;54.332;10.118;2022-07-21T01:03:20;19.80;99.90
8892;DHT22;4482;54.332;10.118;2022-07-21T01:05:49;19.80;99.90
8892;DHT22;4482;54.332;10.118;2022-07-21T01:08:17;19.70;99.90
8892;DHT22;4482;54.332;10.118;2022-07-21T01:10:44;19.70;99.90
8892;DHT22;4482;54.332;10.118;2022-07-21T01:13:12;19.60;99.90
8892;DHT22;4482;54.332;10.118;2022-07-21T01:15:39;19.60;99.90
8892;DHT22;4482;54.332;10.118;2022-07-21T01:18:05;19.60;99.90
8892;DHT22;4482;54.332;10.118;2022-07-21T01:20:34;19.60;99.90
8892;DHT22;4482;54.332;10.118;2022-07-21T01:23:03;19.60;99.90
8892;DHT22;4482;54.332;10.118;2022-07-21T01:25:30;19.60;99.90
8892;DHT22;4482;54.332;10.118;2022-07-21T01:27:57;19.70;99.90
8892;DHT22;4482;54.332;10.118;2022-07-21T01:30:45;19.60;99.90
8892;DHT22;4482;54.332;10.118;2022-07-21T01:33:12;19.60;99.90
8892;DHT22;4482;54.332;10.118;2022-07-21T01:35:38;19.60;99.90
8892;DHT22;4482;54.332;10.118;2022-07-21T01:38:08;19.60;99.90
8892;DHT22;4482;54.332;10.118;2022-07-21T01:40:57;19.60;99.90
8892;DHT22;4482;54.332;10.118;2022-07-21T01:43:42;19.60;99.90
8892;DHT22;4482;54.332;10.118;2022-07-21T01:46:10;19.70;99.90
8892;DHT22;4482;54.332;10.118;2022-07-21T01:48:41;19.70;99.90
8892;DHT22;4482;54.332;10.118;2022-07-21T01:51:08;19.60;99.90
8892;DHT22;4482;54.332;10.118;2022-07-21T01:53:37;19.60;99.90
8892;DHT22;4482;54.332;10.118;2022-07-21T01:56:05;19.50;99.90
8892;DHT22;4482;54.332;10.118;2022-07-21T01:58:32;19.50;99.90
8892;DHT22;4482;54.332;10.118;2022-07-21T02:00:59;19.40;99.90
8892;DHT22;4482;54.332;10.118;2022-07-21T02:03:26;19.40;99.90
8892;DHT22;4482;54.332;10.118;2022-07-21T02:05:59;19.50;99.90
8892;DHT22;4482;54.332;10.118;2022-07-21T02:08:26;19.50;99.90
8892;DHT22;4482;54.332;10.118;2022-07-21T02:10:54;19.40;99.90
8892;DHT22;4482;54.332;10.118;2022-07-21T02:13:21;19.40;99.90
8892;DHT22;4482;54.332;10.118;2022-07-21T02:15:48;19.40;99.90
8892;DHT22;4482;54.332;10.118;2022-07-21T02:18:15;19.40;99.90
8892;DHT22;4482;54.332;10.118;2022-07-21T02:20:42;19.40;99.90
8892;DHT22;4482;54.332;10.118;2022-07-21T02:23:10;19.40;99.90
8892;DHT22;4482;54.332;10.118;2022-07-21T02:25:37;19.40;99.90
8892;DHT22;4482;54.332;10.118;2022-07-21T02:28:05;19.40;99.90
8892;DHT22;4482;54.332;10.118;2022-07-21T02:30:32;19.40;99.90
8892;DHT22;4482;54.332;10.118;2022-07-21T02:32:59;19.40;99.90
8892;DHT22;4482;54.332;10.118;2022-07-21T02:35:26;19.30;99.90
8892;DHT22;4482;54.332;10.118;2022-07-21T02:37:53;19.30;99.90
8892;DHT22;4482;54.332;10.118;2022-07-21T02:40:20;19.20;99.90
8892;DHT22;4482;54.332;10.118;2022-07-21T02:42:47;19.20;99.90
8892;DHT22;4482;54.332;10.118;2022-07-21T02:45:15;19.10;99.90
8892;DHT22;4482;54.332;10.118;2022-07-21T02:47:53;19.10;99.90
8892;DHT22;4482;54.332;10.118;2022-07-21T02:50:21;19.00;99.90
8892;DHT22;4482;54.332;10.118;2022-07-21T02:52:49;18.90;99.90
8892;DHT22;4482;54.332;10.118;2022-07-21T02:55:16;18.90;99.90
8892;DHT22;4482;54.332;10.118;2022-07-21T02:57:43;18.90;99.90
8892;DHT22;4482;54.332;10.118;2022-07-21T03:00:10;18.90;99.90
8892;DHT22;4482;54.332;10.118;2022-07-21T03:02:38;18.80;99.90
8892;DHT22;4482;54.332;10.118;2022-07-21T03:05:06;18.80;99.90
8892;DHT22;4482;54.332;10.118;2022-07-21T03:07:33;18.80;99.90
8892;DHT22;4482;54.332;10.118;2022-07-21T03:10:00;18.80;99.90
8892;DHT22;4482;54.332;10.118;2022-07-21T03:12:26;18.80;99.90
8892;DHT22;4482;54.332;10.118;2022-07-21T03:14:53;18.80;99.90
8892;DHT22;4482;54.332;10.118;2022-07-21T03:17:23;18.70;99.90
8892;DHT22;4482;54.332;10.118;2022-07-21T03:19:52;18.70;99.90
8892;DHT22;4482;54.332;10.118;2022-07-21T03:22:18;18.70;99.90
8892;DHT22;4482;54.332;10.118;2022-07-21T03:24:45;18.70;99.90
8892;DHT22;4482;54.332;10.118;2022-07-21T03:27:12;18.90;99.90
8892;DHT22;4482;54.332;10.118;2022-07-21T03:29:39;18.90;99.90
8892;DHT22;4482;54.332;10.118;2022-07-21T03:32:06;18.80;99.90
8892;DHT22;4482;54.332;10.118;2022-07-21T03:34:32;18.80;99.90
8892;DHT22;4482;54.332;10.118;2022-07-21T03:37:01;18.80;99.90
8892;DHT22;4482;54.332;10.118;2022-07-21T03:39:28;18.80;99.90
8892;DHT22;4482;54.332;10.118;2022-07-21T03:41:54;18.70;99.90
8892;DHT22;4482;54.332;10.118;2022-07-21T03:44:21;18.80;99.90
8892;DHT22;4482;54.332;10.118;2022-07-21T03:46:48;18.80;99.90
8892;DHT22;4482;54.332;10.118;2022-07-21T03:49:15;18.70;99.90
8892;DHT22;4482;54.332;10.118;2022-07-21T03:51:42;18.70;99.90
8892;DHT22;4482;54.332;10.118;2022-07-21T03:54:10;18.60;99.90
8892;DHT22;4482;54.332;10.118;2022-07-21T03:56:37;18.60;99.90
8892;DHT22;4482;54.332;10.118;2022-07-21T03:59:04;18.60;99.90
8892;DHT22;4482;54.332;10.118;2022-07-21T04:01:31;18.50;99.90
8892;DHT22;4482;54.332;10.118;2022-07-21T04:03:57;18.60;99.90
8892;DHT22;4482;54.332;10.118;2022-07-21T04:06:24;18.60;99.90
8892;DHT22;4482;54.332;10.118;2022-07-21T04:08:51;18.50;99.90
8892;DHT22;4482;54.332;10.118;2022-07-21T04:11:19;18.50;99.90
8892;DHT22;4482;54.332;10.118;2022-07-21T04:13:46;18.60;99.90
8892;DHT22;4482;54.332;10.118;2022-07-21T04:16:13;19.00;99.90
8892;DHT22;4482;54.332;10.118;2022-07-21T04:18:40;19.10;99.90
8892;DHT22;4482;54.332;10.118;2022-07-21T04:21:07;18.90;99.90
8892;DHT22;4482;54.332;10.118;2022-07-21T04:23:34;18.90;99.90
8892;DHT22;4482;54.332;10.118;2022-07-21T04:26:00;18.90;99.90
8892;DHT22;4482;54.332;10.118;2022-07-21T04:28:29;18.80;99.90
8892;DHT22;4482;54.332;10.118;2022-07-21T04:30:55;18.80;99.90
8892;DHT22;4482;54.332;10.118;2022-07-21T04:33:22;18.90;99.90
8892;DHT22;4482;54.332;10.118;2022-07-21T04:35:49;18.90;99.90
8892;DHT22;4482;54.332;10.118;2022-07-21T04:38:16;19.10;99.90
8892;DHT22;4482;54.332;10.118;2022-07-21T04:40:44;19.20;99.90
8892;DHT22;4482;54.332;10.118;2022-07-21T04:43:11;19.30;99.90
8892;DHT22;4482;54.332;10.118;2022-07-21T04:45:39;19.50;99.90
8892;DHT22;4482;54.332;10.118;2022-07-21T04:48:06;19.60;99.90
8892;DHT22;4482;54.332;10.118;2022-07-21T04:50:33;19.80;99.90
8892;DHT22;4482;54.332;10.118;2022-07-21T04:52:59;19.90;99.90
8892;DHT22;4482;54.332;10.118;2022-07-21T04:55:26;20.00;99.90
8892;DHT22;4482;54.332;10.118;2022-07-21T04:57:53;19.80;99.90
8892;DHT22;4482;54.332;10.118;2022-07-21T05:00:23;19.80;99.90
8892;DHT22;4482;54.332;10.118;2022-07-21T05:02:53;19.60;99.90
8892;DHT22;4482;54.332;10.118;2022-07-21T05:05:20;19.50;99.90
8892;DHT22;4482;54.332;10.118;2022-07-21T05:07:47;19.50;99.90
8892;DHT22;4482;54.332;10.118;2022-07-21T05:10:15;19.40;99.90
8892;DHT22;4482;54.332;10.118;2022-07-21T05:12:43;19.40;99.90
8892;DHT22;4482;54.332;10.118;2022-07-21T05:15:11;19.50;99.90
8892;DHT22;4482;54.332;10.118;2022-07-21T05:17:38;19.60;99.90
8892;DHT22;4482;54.332;10.118;2022-07-21T05:20:09;19.60;99.90
8892;DHT22;4482;54.332;10.118;2022-07-21T05:22:36;19.60;99.90
8892;DHT22;4482;54.332;10.118;2022-07-21T05:25:03;19.60;99.90
8892;DHT22;4482;54.332;10.118;2022-07-21T05:27:30;19.70;99.90
8892;DHT22;4482;54.332;10.118;2022-07-21T05:29:57;19.70;99.90
8892;DHT22;4482;54.332;10.118;2022-07-21T05:32:24;20.00;99.90
8892;DHT22;4482;54.332;10.118;2022-07-21T05:34:51;20.00;99.90
8892;DHT22;4482;54.332;10.118;2022-07-21T05:37:19;20.00;99.90
8892;DHT22;4482;54.332;10.118;2022-07-21T05:39:46;20.00;99.90
8892;DHT22;4482;54.332;10.118;2022-07-21T05:42:13;19.90;99.90
8892;DHT22;4482;54.332;10.118;2022-07-21T05:44:40;20.00;99.90
8892;DHT22;4482;54.332;10.118;2022-07-21T05:47:07;20.10;99.90
8892;DHT22;4482;54.332;10.118;2022-07-21T05:49:36;20.20;99.90
8892;DHT22;4482;54.332;10.118;2022-07-21T05:52:03;20.30;99.90
8892;DHT22;4482;54.332;10.118;2022-07-21T05:54:32;20.40;99.90
8892;DHT22;4482;54.332;10.118;2022-07-21T05:56:59;20.50;99.90
8892;DHT22;4482;54.332;10.118;2022-07-21T05:59:27;20.60;99.90
8892;DHT22;4482;54.332;10.118;2022-07-21T06:01:54;20.90;99.90
8892;DHT22;4482;54.332;10.118;2022-07-21T06:04:21;21.00;99.90
8892;DHT22;4482;54.332;10.118;2022-07-21T06:06:48;21.00;99.90
8892;DHT22;4482;54.332;10.118;2022-07-21T06:09:15;21.10;99.90
8892;DHT22;4482;54.332;10.118;2022-07-21T06:11:43;21.00;99.90
8892;DHT22;4482;54.332;10.118;2022-07-21T06:14:10;20.90;99.90
8892;DHT22;4482;54.332;10.118;2022-07-21T06:16:37;20.90;99.90
8892;DHT22;4482;54.332;10.118;2022-07-21T06:19:05;21.00;99.90
8892;DHT22;4482;54.332;10.118;2022-07-21T06:21:32;21.30;99.90
8892;DHT22;4482;54.332;10.118;2022-07-21T06:23:59;21.50;99.90
8892;DHT22;4482;54.332;10.118;2022-07-21T06:26:27;21.80;99.90
8892;DHT22;4482;54.332;10.118;2022-07-21T06:28:55;22.00;99.90
8892;DHT22;4482;54.332;10.118;2022-07-21T06:31:22;22.40;99.90
8892;DHT22;4482;54.332;10.118;2022-07-21T06:33:49;22.90;99.90
8892;DHT22;4482;54.332;10.118;2022-07-21T06:36:16;23.40;99.90
8892;DHT22;4482;54.332;10.118;2022-07-21T06:38:43;23.40;99.90
8892;DHT22;4482;54.332;10.118;2022-07-21T06:41:11;23.30;99.90
8892;DHT22;4482;54.332;10.118;2022-07-21T06:43:38;23.00;99.90
8892;DHT22;4482;54.332;10.118;2022-07-21T06:46:06;22.70;99.90
8892;DHT22;4482;54.332;10.118;2022-07-21T06:48:33;22.70;99.90
8892;DHT22;4482;54.332;10.118;2022-07-21T06:51:00;22.50;99.90
8892;DHT22;4482;54.332;10.118;2022-07-21T06:53:27;22.50;99.90
8892;DHT22;4482;54.332;10.118;2022-07-21T06:55:53;22.50;99.90
8892;DHT22;4482;54.332;10.118;2022-07-21T06:58:21;22.40;99.90
8892;DHT22;4482;54.332;10.118;2022-07-21T07:00:51;22.40;99.90
8892;DHT22;4482;54.332;10.118;2022-07-21T07:03:20;22.30;99.90
8892;DHT22;4482;54.332;10.118;2022-07-21T07:05:47;22.20;99.90
8892;DHT22;4482;54.332;10.118;2022-07-21T07:08:15;22.00;99.90
8892;DHT22;4482;54.332;10.118;2022-07-21T07:10:43;22.00;99.90
8892;DHT22;4482;54.332;10.118;2022-07-21T07:13:10;21.90;99.90
8892;DHT22;4482;54.332;10.118;2022-07-21T07:15:38;21.80;99.90
8892;DHT22;4482;54.332;10.118;2022-07-21T07:18:05;21.80;99.90
8892;DHT22;4482;54.332;10.118;2022-07-21T07:20:34;21.70;99.90
8892;DHT22;4482;54.332;10.118;2022-07-21T07:23:00;21.80;99.90
8892;DHT22;4482;54.332;10.118;2022-07-21T07:25:27;21.90;99.90
8892;DHT22;4482;54.332;10.118;2022-07-21T07:27:54;22.10;99.90
8892;DHT22;4482;54.332;10.118;2022-07-21T07:30:22;22.20;99.90
8892;DHT22;4482;54.332;10.118;2022-07-21T07:32:49;22.20;99.90
8892;DHT22;4482;54.332;10.118;2022-07-21T07:35:17;22.20;99.90
8892;DHT22;4482;54.332;10.118;2022-07-21T07:37:46;22.10;99.90
8892;DHT22;4482;54.332;10.118;2022-07-21T07:40:16;22.20;99.90
8892;DHT22;4482;54.332;10.118;2022-07-21T07:42:43;22.20;99.90
8892;DHT22;4482;54.332;10.118;2022-07-21T07:45:11;22.20;99.90
8892;DHT22;4482;54.332;10.118;2022-07-21T07:47:38;22.50;99.90
8892;DHT22;4482;54.332;10.118;2022-07-21T07:50:07;22.90;99.90
8892;DHT22;4482;54.332;10.118;2022-07-21T07:52:35;23.30;99.90
8892;DHT22;4482;54.332;10.118;2022-07-21T07:55:04;23.60;99.90
8892;DHT22;4482;54.332;10.118;2022-07-21T07:57:33;24.20;99.90
8892;DHT22;4482;54.332;10.118;2022-07-21T08:00:00;25.30;99.90
8892;DHT22;4482;54.332;10.118;2022-07-21T08:02:27;26.50;99.90
8892;DHT22;4482;54.332;10.118;2022-07-21T08:04:54;26.80;99.90
8892;DHT22;4482;54.332;10.118;2022-07-21T08:07:21;26.70;99.90
8892;DHT22;4482;54.332;10.118;2022-07-21T08:09:48;26.40;99.90
8892;DHT22;4482;54.332;10.118;2022-07-21T08:12:16;26.00;99.90
8892;DHT22;4482;54.332;10.118;2022-07-21T08:14:43;25.70;99.90
8892;DHT22;4482;54.332;10.118;2022-07-21T08:17:10;25.50;99.90
8892;DHT22;4482;54.332;10.118;2022-07-21T08:19:37;25.10;99.90
8892;DHT22;4482;54.332;10.118;2022-07-21T08:22:03;24.70;99.90
8892;DHT22;4482;54.332;10.118;2022-07-21T08:24:30;24.50;99.90
8892;DHT22;4482;54.332;10.118;2022-07-21T08:26:57;24.40;99.90
8892;DHT22;4482;54.332;10.118;2022-07-21T08:29:25;24.30;99.90
8892;DHT22;4482;54.332;10.118;2022-07-21T08:31:52;24.10;99.90
8892;DHT22;4482;54.332;10.118;2022-07-21T08:34:19;23.90;99.90
8892;DHT22;4482;54.332;10.118;2022-07-21T08:36:46;23.70;99.90
8892;DHT22;4482;54.332;10.118;2022-07-21T08:39:13;23.50;99.90
8892;DHT22;4482;54.332;10.118;2022-07-21T08:41:40;23.40;99.90
8892;DHT22;4482;54.332;10.118;2022-07-21T08:44:07;23.20;99.90
8892;DHT22;4482;54.332;10.118;2022-07-21T08:46:38;23.10;99.90
8892;DHT22;4482;54.332;10.118;2022-07-21T08:49:09;22.90;99.90
8892;DHT22;4482;54.332;10.118;2022-07-21T08:51:36;22.80;99.90
8892;DHT22;4482;54.332;10.118;2022-07-21T08:54:04;22.80;99.90
8892;DHT22;4482;54.332;10.118;2022-07-21T08:56:31;22.90;99.90
8892;DHT22;4482;54.332;10.118;2022-07-21T08:58:58;23.10;99.90
8892;DHT22;4482;54.332;10.118;2022-07-21T09:01:25;23.10;99.90
8892;DHT22;4482;54.332;10.118;2022-07-21T09:03:53;23.40;99.90
8892;DHT22;4482;54.332;10.118;2022-07-21T09:06:20;23.80;99.90
8892;DHT22;4482;54.332;10.118;2022-07-21T09:08:48;24.20;99.90
8892;DHT22;4482;54.332;10.118;2022-07-21T09:11:18;24.20;99.90
8892;DHT22;4482;54.332;10.118;2022-07-21T09:13:46;24.10;99.90
8892;DHT22;4482;54.332;10.118;2022-07-21T09:16:32;23.80;99.90
8892;DHT22;4482;54.332;10.118;2022-07-21T09:19:01;23.50;99.90
8892;DHT22;4482;54.332;10.118;2022-07-21T09:21:28;23.50;99.90
8892;DHT22;4482;54.332;10.118;2022-07-21T09:24:14;23.40;99.90
8892;DHT22;4482;54.332;10.118;2022-07-21T09:27:02;23.30;99.90
8892;DHT22;4482;54.332;10.118;2022-07-21T09:29:35;23.20;99.90
8892;DHT22;4482;54.332;10.118;2022-07-21T09:32:13;23.20;99.90
8892;DHT22;4482;54.332;10.118;2022-07-21T09:34:42;23.20;99.90
8892;DHT22;4482;54.332;10.118;2022-07-21T09:37:09;23.20;99.90
8892;DHT22;4482;54.332;10.118;2022-07-21T09:39:46;23.30;99.90
8892;DHT22;4482;54.332;10.118;2022-07-21T09:42:19;23.60;99.90
8892;DHT22;4482;54.332;10.118;2022-07-21T09:44:48;23.60;99.90
8892;DHT22;4482;54.332;10.118;2022-07-21T09:47:16;23.60;99.90
8892;DHT22;4482;54.332;10.118;2022-07-21T09:49:45;23.60;99.90
8892;DHT22;4482;54.332;10.118;2022-07-21T09:52:23;24.10;99.90
8892;DHT22;4482;54.332;10.118;2022-07-21T09:54:51;26.10;99.90
8892;DHT22;4482;54.332;10.118;2022-07-21T09:57:19;28.10;99.90
8892;DHT22;4482;54.332;10.118;2022-07-21T09:59:47;29.50;99.90
8892;DHT22;4482;54.332;10.118;2022-07-21T10:02:17;30.90;99.90
8892;DHT22;4482;54.332;10.118;2022-07-21T10:04:50;31.60;99.90
8892;DHT22;4482;54.332;10.118;2022-07-21T10:07:18;32.00;99.90
8892;DHT22;4482;54.332;10.118;2022-07-21T10:09:46;31.50;99.90
8892;DHT22;4482;54.332;10.118;2022-07-21T10:12:14;30.80;99.90
8892;DHT22;4482;54.332;10.118;2022-07-21T10:14:42;31.50;99.90
8892;DHT22;4482;54.332;10.118;2022-07-21T10:17:09;32.50;99.90
8892;DHT22;4482;54.332;10.118;2022-07-21T10:19:42;33.20;99.90
8892;DHT22;4482;54.332;10.118;2022-07-21T10:22:20;33.90;99.90
8892;DHT22;4482;54.332;10.118;2022-07-21T10:24:48;34.50;99.90
8892;DHT22;4482;54.332;10.118;2022-07-21T10:27:15;34.20;99.90
8892;DHT22;4482;54.332;10.118;2022-07-21T10:29:54;34.00;99.90
8892;DHT22;4482;54.332;10.118;2022-07-21T10:32:22;32.10;99.90
8892;DHT22;4482;54.332;10.118;2022-07-21T10:34:50;30.80;99.90
8892;DHT22;4482;54.332;10.118;2022-07-21T10:37:46;29.70;99.90
8892;DHT22;4482;54.332;10.118;2022-07-21T10:40:37;28.60;99.90
8892;DHT22;4482;54.332;10.118;2022-07-21T10:43:39;27.90;99.90
8892;DHT22;4482;54.332;10.118;2022-07-21T10:46:35;27.20;99.90
8892;DHT22;4482;54.332;10.118;2022-07-21T10:49:07;26.70;99.90
8892;DHT22;4482;54.332;10.118;2022-07-21T10:51:35;26.80;99.90
8892;DHT22;4482;54.332;10.118;2022-07-21T10:54:17;27.00;99.90
8892;DHT22;4482;54.332;10.118;2022-07-21T10:56:44;26.70;99.90
8892;DHT22;4482;54.332;10.118;2022-07-21T10:59:11;26.50;99.90
8892;DHT22;4482;54.332;10.118;2022-07-21T11:01:38;26.10;99.90
8892;DHT22;4482;54.332;10.118;2022-07-21T11:04:09;25.70;99.90
8892;DHT22;4482;54.332;10.118;2022-07-21T11:06:37;25.40;99.90
8892;DHT22;4482;54.332;10.118;2022-07-21T11:09:12;25.10;99.90
8892;DHT22;4482;54.332;10.118;2022-07-21T11:11:57;25.10;99.90
8892;DHT22;4482;54.332;10.118;2022-07-21T11:14:35;27.30;99.90
8892;DHT22;4482;54.332;10.118;2022-07-21T11:17:02;29.20;99.90
8892;DHT22;4482;54.332;10.118;2022-07-21T11:19:33;30.70;99.90
8892;DHT22;4482;54.332;10.118;2022-07-21T11:22:02;31.40;99.90
8892;DHT22;4482;54.332;10.118;2022-07-21T11:24:29;31.90;99.90
8892;DHT22;4482;54.332;10.118;2022-07-21T11:27:00;32.50;99.90
8892;DHT22;4482;54.332;10.118;2022-07-21T11:29:28;33.40;99.90
8892;DHT22;4482;54.332;10.118;2022-07-21T11:31:56;34.40;99.90
8892;DHT22;4482;54.332;10.118;2022-07-21T11:34:24;33.10;99.90
8892;DHT22;4482;54.332;10.118;2022-07-21T11:36:58;31.50;99.90
8892;DHT22;4482;54.332;10.118;2022-07-21T11:39:26;31.10;99.90
8892;DHT22;4482;54.332;10.118;2022-07-21T11:41:52;32.10;99.90
8892;DHT22;4482;54.332;10.118;2022-07-21T11:44:25;32.30;99.90
8892;DHT22;4482;54.332;10.118;2022-07-21T11:46:54;32.80;99.90
8892;DHT22;4482;54.332;10.118;2022-07-21T11:49:21;32.70;99.90
8892;DHT22;4482;54.332;10.118;2022-07-21T11:51:50;31.70;99.90
8892;DHT22;4482;54.332;10.118;2022-07-21T11:54:34;30.80;99.90
8892;DHT22;4482;54.332;10.118;2022-07-21T11:57:02;29.50;99.90
8892;DHT22;4482;54.332;10.118;2022-07-21T11:59:32;28.70;99.90
8892;DHT22;4482;54.332;10.118;2022-07-21T12:02:02;28.60;99.90
8892;DHT22;4482;54.332;10.118;2022-07-21T12:04:35;28.70;99.90
8892;DHT22;4482;54.332;10.118;2022-07-21T12:07:03;28.40;99.90
8892;DHT22;4482;54.332;10.118;2022-07-21T12:09:31;27.90;99.90
8892;DHT22;4482;54.332;10.118;2022-07-21T12:11:59;27.60;99.90
8892;DHT22;4482;54.332;10.118;2022-07-21T12:14:46;26.90;99.90
8892;DHT22;4482;54.332;10.118;2022-07-21T12:17:15;26.20;99.90
8892;DHT22;4482;54.332;10.118;2022-07-21T12:19:42;25.80;99.90
8892;DHT22;4482;54.332;10.118;2022-07-21T12:22:12;25.80;99.90
8892;DHT22;4482;54.332;10.118;2022-07-21T12:24:50;25.80;99.90
8892;DHT22;4482;54.332;10.118;2022-07-21T12:27:18;25.60;99.90
8892;DHT22;4482;54.332;10.118;2022-07-21T12:29:46;25.40;99.90
8892;DHT22;4482;54.332;10.118;2022-07-21T12:32:13;25.30;99.90
8892;DHT22;4482;54.332;10.118;2022-07-21T12:34:50;25.30;99.90
8892;DHT22;4482;54.332;10.118;2022-07-21T12:37:18;25.40;99.90
8892;DHT22;4482;54.332;10.118;2022-07-21T12:40:00;25.50;99.90
8892;DHT22;4482;54.332;10.118;2022-07-21T12:42:29;25.80;99.90
8892;DHT22;4482;54.332;10.118;2022-07-21T12:44:58;25.90;99.90
8892;DHT22;4482;54.332;10.118;2022-07-21T12:47:26;25.80;99.90
8892;DHT22;4482;54.332;10.118;2022-07-21T12:49:56;25.50;99.90
8892;DHT22;4482;54.332;10.118;2022-07-21T12:52:24;25.20;99.90
8892;DHT22;4482;54.332;10.118;2022-07-21T12:54:52;25.00;99.90
8892;DHT22;4482;54.332;10.118;2022-07-21T12:57:19;25.00;99.90
8892;DHT22;4482;54.332;10.118;2022-07-21T12:59:46;24.90;99.90
8892;DHT22;4482;54.332;10.118;2022-07-21T13:02:14;24.80;99.90
8892;DHT22;4482;54.332;10.118;2022-07-21T13:04:41;24.70;99.90
8892;DHT22;4482;54.332;10.118;2022-07-21T13:07:08;24.70;99.90
8892;DHT22;4482;54.332;10.118;2022-07-21T13:09:34;24.80;99.90
8892;DHT22;4482;54.332;10.118;2022-07-21T13:12:01;25.00;99.90
8892;DHT22;4482;54.332;10.118;2022-07-21T13:14:28;25.10;99.90
8892;DHT22;4482;54.332;10.118;2022-07-21T13:16:55;25.30;99.90
8892;DHT22;4482;54.332;10.118;2022-07-21T13:19:24;25.30;99.90
8892;DHT22;4482;54.332;10.118;2022-07-21T13:21:52;25.30;99.90
8892;DHT22;4482;54.332;10.118;2022-07-21T13:24:19;25.20;99.90
8892;DHT22;4482;54.332;10.118;2022-07-21T13:26:46;25.00;99.90
8892;DHT22;4482;54.332;10.118;2022-07-21T13:29:13;25.00;99.90
8892;DHT22;4482;54.332;10.118;2022-07-21T13:31:40;24.90;99.90
8892;DHT22;4482;54.332;10.118;2022-07-21T13:34:07;24.70;99.90
8892;DHT22;4482;54.332;10.118;2022-07-21T13:36:36;24.70;99.90
8892;DHT22;4482;54.332;10.118;2022-07-21T13:39:04;24.70;99.90
8892;DHT22;4482;54.332;10.118;2022-07-21T13:41:31;24.70;99.90
8892;DHT22;4482;54.332;10.118;2022-07-21T13:43:58;24.70;99.90
8892;DHT22;4482;54.332;10.118;2022-07-21T13:46:26;24.50;99.90
8892;DHT22;4482;54.332;10.118;2022-07-21T13:48:53;24.40;99.90
8892;DHT22;4482;54.332;10.118;2022-07-21T13:51:21;24.40;99.90
8892;DHT22;4482;54.332;10.118;2022-07-21T13:53:51;24.30;99.90
8892;DHT22;4482;54.332;10.118;2022-07-21T13:56:19;24.10;99.90
8892;DHT22;4482;54.332;10.118;2022-07-21T13:58:46;24.00;99.90
8892;DHT22;4482;54.332;10.118;2022-07-21T14:01:13;24.00;99.90
8892;DHT22;4482;54.332;10.118;2022-07-21T14:03:40;23.80;99.90
8892;DHT22;4482;54.332;10.118;2022-07-21T14:06:07;23.70;99.90
8892;DHT22;4482;54.332;10.118;2022-07-21T14:08:34;23.60;99.90
8892;DHT22;4482;54.332;10.118;2022-07-21T14:11:03;23.50;99.90
8892;DHT22;4482;54.332;10.118;2022-07-21T14:13:30;23.40;99.90
8892;DHT22;4482;54.332;10.118;2022-07-21T14:15:57;23.50;99.90
8892;DHT22;4482;54.332;10.118;2022-07-21T14:18:23;23.60;99.90
8892;DHT22;4482;54.332;10.118;2022-07-21T14:20:50;23.60;99.90
8892;DHT22;4482;54.332;10.118;2022-07-21T14:23:18;23.60;99.90
8892;DHT22;4482;54.332;10.118;2022-07-21T14:25:46;23.80;99.90
8892;DHT22;4482;54.332;10.118;2022-07-21T14:28:14;23.70;99.90
8892;DHT22;4482;54.332;10.118;2022-07-21T14:30:41;23.70;99.90
8892;DHT22;4482;54.332;10.118;2022-07-21T14:33:08;23.80;99.90
8892;DHT22;4482;54.332;10.118;2022-07-21T14:35:36;23.90;99.90
8892;DHT22;4482;54.332;10.118;2022-07-21T14:38:03;23.90;99.90
8892;DHT22;4482;54.332;10.118;2022-07-21T14:40:29;24.10;99.90
8892;DHT22;4482;54.332;10.118;2022-07-21T14:42:57;24.10;99.90
8892;DHT22;4482;54.332;10.118;2022-07-21T14:45:25;24.20;99.90
8892;DHT22;4482;54.332;10.118;2022-07-21T14:47:53;24.40;99.90
8892;DHT22;4482;54.332;10.118;2022-07-21T14:50:22;24.40;99.90
8892;DHT22;4482;54.332;10.118;2022-07-21T14:52:49;24.30;99.90
8892;DHT22;4482;54.332;10.118;2022-07-21T14:55:16;24.30;99.90
8892;DHT22;4482;54.332;10.118;2022-07-21T14:57:43;24.30;99.90
8892;DHT22;4482;54.332;10.118;2022-07-21T15:00:11;24.40;99.90
8892;DHT22;4482;54.332;10.118;2022-07-21T15:02:40;24.30;99.90
8892;DHT22;4482;54.332;10.118;2022-07-21T15:05:07;24.20;99.90
8892;DHT22;4482;54.332;10.118;2022-07-21T15:07:34;24.30;99.90
8892;DHT22;4482;54.332;10.118;2022-07-21T15:10:01;24.20;99.90
8892;DHT22;4482;54.332;10.118;2022-07-21T15:12:28;24.10;99.90
8892;DHT22;4482;54.332;10.118;2022-07-21T15:14:55;24.10;99.90
8892;DHT22;4482;54.332;10.118;2022-07-21T15:17:22;24.00;99.90
8892;DHT22;4482;54.332;10.118;2022-07-21T15:19:50;24.00;99.90
8892;DHT22;4482;54.332;10.118;2022-07-21T15:22:17;24.10;99.90
8892;DHT22;4482;54.332;10.118;2022-07-21T15:24:44;24.10;99.90
8892;DHT22;4482;54.332;10.118;2022-07-21T15:27:11;24.10;99.90
8892;DHT22;4482;54.332;10.118;2022-07-21T15:29:38;24.10;99.90
8892;DHT22;4482;54.332;10.118;2022-07-21T15:32:05;24.00;99.90
8892;DHT22;4482;54.332;10.118;2022-07-21T15:34:32;24.00;99.90
8892;DHT22;4482;54.332;10.118;2022-07-21T15:37:00;24.00;99.90
8892;DHT22;4482;54.332;10.118;2022-07-21T15:39:27;24.00;99.90
8892;DHT22;4482;54.332;10.118;2022-07-21T15:41:54;24.10;99.90
8892;DHT22;4482;54.332;10.118;2022-07-21T15:44:21;24.10;99.90
8892;DHT22;4482;54.332;10.118;2022-07-21T15:46:48;24.00;99.90
8892;DHT22;4482;54.332;10.118;2022-07-21T15:49:15;23.90;99.90
8892;DHT22;4482;54.332;10.118;2022-07-21T15:51:43;23.90;99.90
8892;DHT22;4482;54.332;10.118;2022-07-21T15:54:11;23.80;99.90